OKBK/KWI METAR and TAF weather

Enter ICAO airport designator
Station Type Date Time Source
OKBK METAR 2020/04/07 15:00 UTC NOAA

OKBK 071500Z 08012KT 7000 TS FEW030CB BKN040 OVC080 26/14 Q1008 NOSIG


Station Type Date Time Source
OKBK Decoded METAR 2020/04/07 15:00 UTC NOAA

Kuwait Internationalairport, Kuwait (OKBK) 29-13N 047-59E 55M
Apr 07, 2020 - 11:00 AM EDT / 2020.04.07 1500 UTC
Wind: from the E (080 degrees) at 14 MPH (12 KT):0
Visibility: 4 mile(s):0
Sky conditions: overcast
Weather: thunder; Cumulonimbus clouds observed
Temperature: 78 F (26 C)
Dew Point: 57 F (14 C)
Relative Humidity: 47%
Pressure (altimeter): 29.77 in. Hg (1008 hPa)
ob: OKBK 071500Z 08012KT 7000 TS FEW030CB BKN040 OVC080 26/14 Q1008 NOSIG
cycle: 15

Station Type Date Time Source
OKBK TAF 2020/04/07 12:57 UTC NOAA

TAF TAF OKBK 071045Z 0712/0818 13015G25KT 6000 NSC
TEMPO 0712/0721 3000 TSRA/BLDU SCT040 FEW025CB

Example: see airport list